This is the latest recevied weather packets stored in our database for station/object JH0FOG-13. If no packets are shown the sender has not sent any weather packets the latest 10 day(s).
| Time | Temp. | Humidity | Pressure | Rain* | Wind** | Luminosity | Snow |
|---|---|---|---|---|---|---|---|
| 1777348803 | 22.22° C | 52% | 1009.3 hPa | 0 mm | - | - | - |
| 1777347603 | 21.67° C | 54% | 1009.3 hPa | 0 mm | - | - | - |
| 1777346403 | 21.67° C | 56% | 1009.4 hPa | 0 mm | - | - | - |
| 1777345203 | 21.11° C | 56% | 1009.6 hPa | 0 mm | - | - | - |
| 1777344003 | 21.11° C | 60% | 1009.8 hPa | 0 mm | - | - | - |
| 1777342803 | 20.56° C | 62% | 1010 hPa | 0 mm | - | - | - |
| 1777341603 | 20.56° C | 61% | 1010 hPa | 0 mm | - | - | - |
| 1777340403 | 21.67° C | 60% | 1010.2 hPa | 0 mm | - | - | - |
| 1777339203 | 20.56° C | 62% | 1010.5 hPa | 0 mm | - | - | - |
| 1777338003 | 21.11° C | 60% | 1010.9 hPa | 0 mm | - | - | - |
| 1777336803 | 20° C | 65% | 1011 hPa | 0 mm | - | - | - |
| 1777335603 | 19.44° C | 66% | 1011 hPa | 0 mm | - | - | - |
| 1777334403 | 18.89° C | 68% | 1011.2 hPa | 0 mm | - | - | - |
| 1777333203 | 18.33° C | 69% | 1011.6 hPa | 0 mm | - | - | - |
| 1777332003 | 17.22° C | 72% | 1011.8 hPa | 0 mm | - | - | - |
| 1777330803 | 17.22° C | 71% | 1011.8 hPa | 0 mm | - | - | - |
| 1777329603 | 16.67° C | 74% | 1011.8 hPa | 0 mm | - | - | - |
| 1777328403 | 16.11° C | 76% | 1011.9 hPa | 0 mm | - | - | - |
| 1777327203 | 15.56° C | 79% | 1012 hPa | 0 mm | - | - | - |
| 1777326003 | 13.33° C | 86% | 1012.1 hPa | 0 mm | - | - | - |
| 1777324803 | 12.22° C | 87% | 1012 hPa | 0 mm | - | - | - |
| 1777323603 | 11.67° C | 88% | 1012.3 hPa | 0 mm | - | - | - |
| 1777322403 | 11.11° C | 90% | 1012.3 hPa | 0 mm | - | - | - |
| 1777321203 | 11.11° C | 90% | 1011.8 hPa | 0 mm | - | - | - |
| 1777320003 | 11.11° C | 90% | 1011.8 hPa | 0 mm | - | - | - |
* Rain latest hour (hover to see other rain measurements)
** Current wind speed in m/s (hover to see current wind gust speed)